Time;durP1;ratioP1;P1;durP2;ratioP2;P2;SDS_P1;SDS_P2;PMS_P1;PMS_P2;Temp;Humidity;BMP_temperature;BMP_pressure;BME280_temperature;BME280_humidity;BME280_pressure;Samples;Min_cycle;Max_cycle;Signal;HPM_P1;HPM_P2
2024/03/31 00:01:20;;;;;;;28.27;9.70;;;;;;;;;;5031551;28;20033;-71
2024/03/31 00:03:46;;;;;;;33.78;12.07;;;;;;;;;;5031705;28;20022;-71
2024/03/31 00:06:12;;;;;;;28.95;9.85;;;;;;;;;;5030643;28;20026;-71
2024/03/31 00:08:38;;;;;;;29.10;9.63;;;;;;;;;;5030539;28;20087;-71
2024/03/31 00:11:08;;;;;;;28.92;9.18;;;;;;;;;;5031204;28;20026;-71
2024/03/31 00:13:34;;;;;;;31.50;9.23;;;;;;;;;;5030026;28;20187;-70
2024/03/31 00:16:00;;;;;;;27.92;8.68;;;;;;;;;;5032084;28;20027;-70
2024/03/31 00:18:27;;;;;;;18.63;8.45;;;;;;;;;;5032059;28;20033;-70
2024/03/31 00:21:00;;;;;;;29.00;9.50;;;;;;;;;;5032301;28;20022;-70
2024/03/31 00:23:26;;;;;;;34.03;8.90;;;;;;;;;;5030499;28;20648;-70
2024/03/31 00:26:02;;;;;;;32.42;9.63;;;;;;;;;;5030796;28;21474;-71
2024/03/31 00:28:28;;;;;;;39.05;8.57;;;;;;;;;;5032444;28;20109;-70
2024/03/31 00:30:58;;;;;;;33.55;8.75;;;;;;;;;;5030719;28;20017;-69
2024/03/31 00:33:25;;;;;;;26.02;8.55;;;;;;;;;;5030307;28;20049;-70
2024/03/31 00:35:51;;;;;;;27.65;9.85;;;;;;;;;;5032595;28;20032;-68
2024/03/31 00:38:17;;;;;;;27.73;9.85;;;;;;;;;;5032409;28;20025;-70
2024/03/31 00:40:43;;;;;;;35.15;10.30;;;;;;;;;;5031455;28;20029;-69
2024/03/31 00:43:09;;;;;;;31.60;9.57;;;;;;;;;;5032534;28;20032;-69
2024/03/31 00:45:35;;;;;;;25.75;9.90;;;;;;;;;;5031303;28;20037;-70
2024/03/31 00:48:02;;;;;;;30.90;8.90;;;;;;;;;;5032609;28;20109;-71
2024/03/31 00:50:28;;;;;;;26.05;9.68;;;;;;;;;;5033006;28;20032;-71
2024/03/31 00:52:54;;;;;;;29.52;9.93;;;;;;;;;;5033470;28;20117;-71
2024/03/31 00:55:20;;;;;;;34.45;9.13;;;;;;;;;;5031412;28;20029;-70
2024/03/31 00:57:46;;;;;;;28.17;10.00;;;;;;;;;;5030564;28;20025;-72
2024/03/31 01:00:12;;;;;;;26.27;9.02;;;;;;;;;;5014044;28;20461;-70
2024/03/31 01:02:38;;;;;;;22.77;9.60;;;;;;;;;;5032127;28;20025;-70
2024/03/31 01:05:04;;;;;;;37.50;9.85;;;;;;;;;;5031997;28;20491;-70
2024/03/31 01:07:30;;;;;;;31.60;10.30;;;;;;;;;;5031452;28;20384;-70
2024/03/31 01:09:56;;;;;;;28.52;11.43;;;;;;;;;;5031282;28;20464;-70
2024/03/31 01:12:22;;;;;;;27.95;10.23;;;;;;;;;;5030906;28;20071;-70
2024/03/31 01:14:48;;;;;;;28.00;9.35;;;;;;;;;;5031280;28;20032;-70
2024/03/31 01:17:14;;;;;;;25.83;9.50;;;;;;;;;;5032196;28;20021;-69
2024/03/31 01:19:40;;;;;;;23.77;8.95;;;;;;;;;;5031413;28;20028;-70
2024/03/31 01:22:06;;;;;;;32.35;11.85;;;;;;;;;;5030937;28;20039;-70
2024/03/31 01:24:32;;;;;;;32.15;10.65;;;;;;;;;;5029630;28;20053;-71
2024/03/31 01:26:58;;;;;;;34.17;10.88;;;;;;;;;;5031189;28;20037;-70
2024/03/31 01:29:24;;;;;;;29.75;10.40;;;;;;;;;;5029953;28;20049;-70
2024/03/31 01:31:50;;;;;;;27.27;10.48;;;;;;;;;;5030647;28;20527;-69
2024/03/31 01:34:16;;;;;;;29.60;10.60;;;;;;;;;;5031179;28;20072;-69
2024/03/31 01:36:44;;;;;;;31.58;10.15;;;;;;;;;;5029740;28;20025;-70
2024/03/31 01:39:11;;;;;;;23.10;8.80;;;;;;;;;;5031360;28;20021;-71
2024/03/31 01:41:37;;;;;;;36.40;9.70;;;;;;;;;;5029710;28;20080;-70
2024/03/31 01:44:03;;;;;;;24.42;8.93;;;;;;;;;;5031012;28;20025;-70
2024/03/31 01:46:29;;;;;;;30.08;10.52;;;;;;;;;;5029459;28;20056;-70
2024/03/31 01:48:55;;;;;;;28.63;9.77;;;;;;;;;;5030831;28;20018;-70
2024/03/31 01:51:21;;;;;;;30.25;8.88;;;;;;;;;;5030519;28;20025;-70
2024/03/31 01:53:47;;;;;;;32.65;10.13;;;;;;;;;;5030987;28;20087;-70
2024/03/31 01:56:13;;;;;;;26.05;9.80;;;;;;;;;;5029525;28;20029;-70
2024/03/31 01:58:39;;;;;;;32.22;8.90;;;;;;;;;;5029590;28;20025;-70
2024/03/31 02:01:05;;;;;;;26.67;8.60;;;;;;;;;;5030246;28;20037;-69
2024/03/31 02:03:31;;;;;;;23.98;9.77;;;;;;;;;;5030846;28;20479;-69
2024/03/31 02:05:57;;;;;;;36.65;10.48;;;;;;;;;;5029333;28;20025;-69
2024/03/31 02:08:23;;;;;;;29.83;11.45;;;;;;;;;;5032716;28;20025;-70
2024/03/31 02:10:49;;;;;;;24.02;9.77;;;;;;;;;;5034269;28;20409;-70
2024/03/31 02:13:15;;;;;;;33.08;10.52;;;;;;;;;;5032587;28;20249;-70
2024/03/31 02:15:44;;;;;;;28.75;11.02;;;;;;;;;;5034223;28;20048;-70
2024/03/31 02:18:10;;;;;;;25.08;9.45;;;;;;;;;;5034139;28;20056;-70
2024/03/31 02:20:36;;;;;;;25.48;9.55;;;;;;;;;;5032651;28;20025;-69
2024/03/31 02:23:02;;;;;;;25.50;9.15;;;;;;;;;;5033687;28;20025;-70
2024/03/31 02:25:28;;;;;;;29.60;9.38;;;;;;;;;;5032521;28;20491;-70
2024/03/31 02:27:54;;;;;;;34.40;10.00;;;;;;;;;;5033797;28;20057;-69
2024/03/31 02:30:20;;;;;;;27.33;10.15;;;;;;;;;;5033475;28;20025;-71
2024/03/31 02:32:46;;;;;;;28.25;8.82;;;;;;;;;;5033472;28;20486;-71
2024/03/31 02:35:12;;;;;;;23.08;8.98;;;;;;;;;;5033797;28;20018;-70
2024/03/31 02:37:38;;;;;;;22.08;9.10;;;;;;;;;;5032273;28;20449;-70
2024/03/31 02:40:04;;;;;;;22.90;7.82;;;;;;;;;;5033749;28;20029;-70
2024/03/31 02:42:30;;;;;;;29.95;8.18;;;;;;;;;;5033507;28;20024;-70
2024/03/31 02:44:56;;;;;;;25.90;7.47;;;;;;;;;;5032198;28;20483;-70
2024/03/31 02:47:22;;;;;;;29.92;9.30;;;;;;;;;;5033761;28;20075;-70
2024/03/31 02:49:48;;;;;;;19.80;8.25;;;;;;;;;;5033423;28;20420;-70
2024/03/31 02:52:14;;;;;;;27.83;8.40;;;;;;;;;;5033060;28;20018;-70
2024/03/31 02:54:40;;;;;;;39.47;8.70;;;;;;;;;;5033423;28;20025;-70
2024/03/31 02:57:06;;;;;;;22.95;8.05;;;;;;;;;;5032545;28;20403;-69
2024/03/31 02:59:32;;;;;;;27.13;9.18;;;;;;;;;;5033754;28;20082;-70
2024/03/31 03:01:59;;;;;;;28.23;7.57;;;;;;;;;;5032986;28;20100;-70
2024/03/31 03:04:25;;;;;;;21.58;7.82;;;;;;;;;;5033627;28;20279;-70
2024/03/31 03:06:50;;;;;;;19.88;7.57;;;;;;;;;;5031947;28;20491;-70
2024/03/31 03:09:17;;;;;;;21.45;7.07;;;;;;;;;;5032984;28;20030;-70
2024/03/31 03:11:43;;;;;;;28.23;8.32;;;;;;;;;;5032736;28;20052;-70
2024/03/31 03:14:09;;;;;;;24.15;7.25;;;;;;;;;;5033109;28;20018;-69
2024/03/31 03:16:35;;;;;;;19.85;7.88;;;;;;;;;;5031738;28;20022;-69
2024/03/31 03:19:01;;;;;;;32.40;9.00;;;;;;;;;;5032690;28;20413;-71
2024/03/31 03:21:27;;;;;;;31.52;7.95;;;;;;;;;;5032749;28;20030;-70
2024/03/31 03:23:53;;;;;;;23.80;7.15;;;;;;;;;;5032879;28;20025;-71
2024/03/31 03:26:19;;;;;;;29.60;7.43;;;;;;;;;;5032830;28;20407;-70
2024/03/31 03:28:46;;;;;;;26.52;7.03;;;;;;;;;;5032912;28;20065;-71
2024/03/31 03:31:12;;;;;;;30.55;6.60;;;;;;;;;;5032434;28;20029;-70
2024/03/31 03:33:38;;;;;;;29.30;7.90;;;;;;;;;;5032609;28;20092;-69
2024/03/31 03:36:07;;;;;;;19.90;7.70;;;;;;;;;;5032554;28;20041;-69
2024/03/31 03:38:34;;;;;;;15.82;6.78;;;;;;;;;;5032546;28;20495;-69
2024/03/31 03:41:00;;;;;;;18.65;6.82;;;;;;;;;;5030735;28;20017;-69
2024/03/31 03:43:32;;;;;;;25.98;7.82;;;;;;;;;;5032438;28;20402;-69
2024/03/31 03:45:59;;;;;;;16.58;6.70;;;;;;;;;;5031351;28;20415;-69
2024/03/31 03:48:25;;;;;;;29.35;8.02;;;;;;;;;;5032396;28;20435;-69
2024/03/31 03:50:51;;;;;;;19.70;7.10;;;;;;;;;;5030847;28;20489;-70
2024/03/31 03:53:17;;;;;;;21.83;6.97;;;;;;;;;;5032166;28;20099;-69
2024/03/31 03:55:44;;;;;;;25.10;9.07;;;;;;;;;;5033347;28;20022;-70
2024/03/31 03:58:10;;;;;;;22.33;7.60;;;;;;;;;;5031385;28;20112;-70
2024/03/31 04:00:42;;;;;;;24.50;6.32;;;;;;;;;;5031399;28;20064;-69
2024/03/31 04:03:09;;;;;;;21.98;7.63;;;;;;;;;;5030722;28;20464;-69
2024/03/31 04:05:35;;;;;;;21.85;6.40;;;;;;;;;;5031113;28;20069;-70
2024/03/31 04:08:01;;;;;;;21.60;7.78;;;;;;;;;;5031098;28;20538;-70
2024/03/31 04:10:27;;;;;;;38.17;9.65;;;;;;;;;;5031042;28;20057;-69
2024/03/31 04:12:53;;;;;;;16.38;7.28;;;;;;;;;;5030652;28;20014;-69
2024/03/31 04:15:19;;;;;;;26.92;7.45;;;;;;;;;;5032509;28;20101;-69
2024/03/31 04:17:45;;;;;;;24.02;9.75;;;;;;;;;;5031553;28;20014;-70
2024/03/31 04:20:11;;;;;;;23.52;7.05;;;;;;;;;;5030118;28;20083;-70
2024/03/31 04:22:37;;;;;;;23.52;8.13;;;;;;;;;;5031777;28;20476;-69
2024/03/31 04:25:03;;;;;;;20.83;6.78;;;;;;;;;;5030609;28;20072;-70
2024/03/31 04:27:30;;;;;;;20.13;7.18;;;;;;;;;;5031902;28;20025;-70
2024/03/31 04:29:56;;;;;;;27.10;7.70;;;;;;;;;;5029978;28;20026;-68
2024/03/31 04:32:22;;;;;;;26.95;9.85;;;;;;;;;;5029953;28;20022;-69
2024/03/31 04:34:48;;;;;;;26.83;8.13;;;;;;;;;;5030374;28;20471;-69
2024/03/31 04:37:14;;;;;;;24.67;7.38;;;;;;;;;;5031960;28;20029;-70
2024/03/31 04:39:40;;;;;;;17.65;7.40;;;;;;;;;;5031678;28;20025;-68
2024/03/31 04:42:06;;;;;;;20.50;7.30;;;;;;;;;;5031638;28;20438;-70
2024/03/31 04:44:32;;;;;;;34.40;9.32;;;;;;;;;;5031190;28;20121;-69
2024/03/31 04:46:58;;;;;;;29.08;7.78;;;;;;;;;;5031664;28;20060;-70
2024/03/31 04:49:24;;;;;;;20.75;7.07;;;;;;;;;;5030063;28;20570;-70
2024/03/31 04:51:50;;;;;;;21.75;8.52;;;;;;;;;;5031132;28;20032;-69
2024/03/31 04:54:17;;;;;;;31.10;7.93;;;;;;;;;;5031562;28;20022;-69
2024/03/31 04:56:43;;;;;;;17.00;7.13;;;;;;;;;;5031392;28;20068;-69
2024/03/31 04:59:09;;;;;;;21.05;8.25;;;;;;;;;;5031763;28;20053;-71
2024/03/31 05:01:35;;;;;;;25.92;9.25;;;;;;;;;;5029592;28;20029;-69
2024/03/31 05:04:01;;;;;;;23.98;8.60;;;;;;;;;;5031200;28;20033;-69
2024/03/31 05:06:27;;;;;;;23.42;8.13;;;;;;;;;;5031246;28;20021;-69
2024/03/31 05:08:53;;;;;;;24.10;7.47;;;;;;;;;;5031158;28;20025;-69
2024/03/31 05:11:19;;;;;;;29.38;7.60;;;;;;;;;;5030946;28;20104;-68
2024/03/31 05:13:45;;;;;;;18.65;7.47;;;;;;;;;;5031427;28;20032;-68
2024/03/31 05:16:11;;;;;;;28.30;8.20;;;;;;;;;;5029525;28;20033;-68
2024/03/31 05:18:38;;;;;;;17.95;8.05;;;;;;;;;;5029842;28;20022;-69
2024/03/31 05:21:07;;;;;;;17.75;7.65;;;;;;;;;;5029609;28;20025;-69
2024/03/31 05:23:34;;;;;;;18.52;7.00;;;;;;;;;;5031215;28;20021;-68
2024/03/31 05:26:00;;;;;;;21.00;7.57;;;;;;;;;;5030106;28;20151;-69
2024/03/31 05:28:27;;;;;;;20.55;8.00;;;;;;;;;;5030012;28;20049;-70
2024/03/31 05:30:54;;;;;;;16.88;6.85;;;;;;;;;;5029805;28;20476;-70
2024/03/31 05:33:20;;;;;;;31.65;7.72;;;;;;;;;;5030226;28;20021;-69
2024/03/31 05:35:47;;;;;;;24.05;7.13;;;;;;;;;;5031137;28;20049;-70
2024/03/31 05:38:14;;;;;;;17.23;6.82;;;;;;;;;;5031630;28;20018;-70
2024/03/31 05:40:41;;;;;;;22.88;8.20;;;;;;;;;;5030067;28;20045;-70
2024/03/31 05:43:07;;;;;;;16.42;6.85;;;;;;;;;;5034550;28;20025;-70
2024/03/31 05:45:37;;;;;;;27.65;6.97;;;;;;;;;;5033657;28;20060;-70
2024/03/31 05:48:04;;;;;;;24.60;7.55;;;;;;;;;;5035407;28;20522;-70
2024/03/31 05:50:30;;;;;;;27.00;7.18;;;;;;;;;;5035353;28;20072;-71
2024/03/31 05:52:56;;;;;;;22.77;7.45;;;;;;;;;;5035355;28;20023;-70
2024/03/31 05:55:22;;;;;;;23.98;6.38;;;;;;;;;;5035804;28;20395;-70
2024/03/31 05:57:48;;;;;;;23.75;6.90;;;;;;;;;;5033777;28;20396;-70
2024/03/31 06:00:14;;;;;;;21.52;9.23;;;;;;;;;;5033755;28;20038;-70
2024/03/31 06:02:40;;;;;;;16.77;7.45;;;;;;;;;;5033381;28;20487;-70
2024/03/31 06:05:07;;;;;;;26.27;7.95;;;;;;;;;;5033808;28;20549;-73
2024/03/31 06:07:34;;;;;;;21.23;7.00;;;;;;;;;;5035969;28;20048;-71
2024/03/31 06:10:00;;;;;;;21.27;6.50;;;;;;;;;;5035104;28;20026;-69
2024/03/31 06:12:26;;;;;;;23.30;6.88;;;;;;;;;;5034606;28;20092;-70
2024/03/31 06:14:52;;;;;;;20.20;6.15;;;;;;;;;;5032986;28;20083;-71
2024/03/31 06:17:21;;;;;;;18.60;6.43;;;;;;;;;;5035318;28;20025;-69
2024/03/31 06:19:48;;;;;;;25.38;8.02;;;;;;;;;;5033367;28;20039;-70
2024/03/31 06:22:14;;;;;;;16.27;6.63;;;;;;;;;;5034200;28;20036;-70
2024/03/31 06:24:41;;;;;;;16.30;6.68;;;;;;;;;;5033228;28;20368;-69
2024/03/31 06:27:07;;;;;;;22.80;8.35;;;;;;;;;;5033313;28;20033;-69
2024/03/31 06:29:33;;;;;;;23.70;8.40;;;;;;;;;;5035152;28;20029;-69
2024/03/31 06:31:59;;;;;;;17.65;6.95;;;;;;;;;;5034994;28;20022;-70
2024/03/31 06:34:25;;;;;;;19.20;7.68;;;;;;;;;;5034881;28;20037;-69
2024/03/31 06:36:51;;;;;;;29.27;8.77;;;;;;;;;;5034235;28;20025;-74
2024/03/31 06:39:17;;;;;;;21.05;10.57;;;;;;;;;;5034385;28;20021;-70
2024/03/31 06:41:43;;;;;;;21.25;8.75;;;;;;;;;;5032347;28;20022;-69
2024/03/31 06:46:48;;;;;;;33.55;9.55;;;;;;;;;;5108047;27;20878;-71
2024/03/31 06:49:14;;;;;;;23.50;9.20;;;;;;;;;;5109217;28;20062;-69
2024/03/31 06:51:40;;;;;;;23.67;9.00;;;;;;;;;;5091837;28;20024;-70
2024/03/31 06:54:06;;;;;;;23.38;9.15;;;;;;;;;;5111424;28;20069;-70
2024/03/31 06:56:32;;;;;;;25.27;9.35;;;;;;;;;;5090922;28;20028;-69
2024/03/31 06:58:58;;;;;;;30.02;8.63;;;;;;;;;;5108911;28;20023;-69
2024/03/31 07:01:24;;;;;;;21.50;8.98;;;;;;;;;;5108603;28;20027;-69
2024/03/31 07:03:50;;;;;;;22.40;8.80;;;;;;;;;;5108598;28;20221;-70
2024/03/31 07:06:16;;;;;;;18.38;8.48;;;;;;;;;;5091172;28;20127;-70
2024/03/31 07:08:43;;;;;;;23.85;8.23;;;;;;;;;;5109065;28;20016;-71
2024/03/31 07:11:09;;;;;;;16.15;7.28;;;;;;;;;;5108516;28;20016;-68
2024/03/31 07:13:35;;;;;;;22.40;9.35;;;;;;;;;;5090397;28;20069;-71
2024/03/31 07:16:01;;;;;;;20.92;9.23;;;;;;;;;;5108375;28;20493;-70
2024/03/31 07:18:27;;;;;;;26.00;9.82;;;;;;;;;;5108611;28;20023;-70
2024/03/31 07:20:53;;;;;;;21.63;8.68;;;;;;;;;;5090494;28;20069;-70
2024/03/31 07:23:19;;;;;;;22.83;8.65;;;;;;;;;;5108036;28;20027;-71
2024/03/31 07:25:45;;;;;;;23.58;8.85;;;;;;;;;;5108372;28;20016;-71
2024/03/31 07:28:11;;;;;;;27.83;9.32;;;;;;;;;;5108596;28;20023;-69
2024/03/31 07:30:37;;;;;;;19.95;8.05;;;;;;;;;;5091545;28;20016;-72
2024/03/31 07:33:03;;;;;;;19.13;9.30;;;;;;;;;;5107965;28;20118;-71
2024/03/31 07:35:30;;;;;;;20.90;7.80;;;;;;;;;;5090139;28;20111;-69
2024/03/31 07:37:56;;;;;;;24.58;10.35;;;;;;;;;;5108009;28;20510;-70
2024/03/31 07:40:22;;;;;;;21.58;8.52;;;;;;;;;;5090705;28;20462;-70
2024/03/31 07:42:48;;;;;;;30.08;8.55;;;;;;;;;;5089552;28;20374;-70
2024/03/31 07:45:14;;;;;;;16.90;8.65;;;;;;;;;;5108119;28;20024;-70
2024/03/31 07:47:40;;;;;;;25.00;8.15;;;;;;;;;;5108197;28;20089;-69
2024/03/31 07:50:06;;;;;;;27.85;7.68;;;;;;;;;;5108484;28;20363;-70
2024/03/31 07:52:32;;;;;;;23.05;8.73;;;;;;;;;;5108112;28;20474;-70
2024/03/31 07:54:58;;;;;;;23.63;8.02;;;;;;;;;;5108387;28;20024;-70
2024/03/31 07:57:24;;;;;;;17.02;7.15;;;;;;;;;;5080635;28;20027;-70
2024/03/31 07:59:50;;;;;;;18.13;7.00;;;;;;;;;;5076886;28;20465;-72
2024/03/31 08:02:16;;;;;;;30.48;7.75;;;;;;;;;;5095482;28;20501;-72
2024/03/31 08:04:42;;;;;;;26.42;7.90;;;;;;;;;;5095389;28;20024;-72
2024/03/31 08:07:08;;;;;;;27.15;7.80;;;;;;;;;;5076849;28;20488;-71
2024/03/31 08:09:34;;;;;;;23.38;6.45;;;;;;;;;;5100675;28;20026;-72
2024/03/31 08:12:00;;;;;;;21.48;6.95;;;;;;;;;;5084841;28;20016;-71
2024/03/31 08:14:26;;;;;;;27.55;7.65;;;;;;;;;;5114710;28;20081;-71
2024/03/31 08:16:52;;;;;;;22.10;7.45;;;;;;;;;;5096886;28;20043;-71
2024/03/31 08:19:18;;;;;;;18.65;6.47;;;;;;;;;;5113920;28;20055;-72
2024/03/31 08:21:47;;;;;;;19.40;5.85;;;;;;;;;;5113563;28;20446;-72
2024/03/31 08:24:13;;;;;;;15.80;5.05;;;;;;;;;;5113926;28;20550;-71
2024/03/31 08:26:39;;;;;;;23.63;5.78;;;;;;;;;;5114074;28;20221;-72
2024/03/31 08:29:05;;;;;;;19.80;5.35;;;;;;;;;;5114253;28;20024;-71
2024/03/31 08:31:31;;;;;;;22.75;5.45;;;;;;;;;;5113649;28;20061;-72
2024/03/31 08:33:57;;;;;;;16.60;5.75;;;;;;;;;;5096011;28;20024;-72
2024/03/31 08:36:24;;;;;;;15.32;5.07;;;;;;;;;;5113607;28;20023;-72
2024/03/31 08:38:50;;;;;;;25.90;6.65;;;;;;;;;;5114460;28;20029;-71
2024/03/31 08:41:21;;;;;;;17.58;4.68;;;;;;;;;;5095300;28;20028;-72
2024/03/31 08:43:48;;;;;;;20.02;4.68;;;;;;;;;;5096058;28;20414;-72
2024/03/31 08:46:14;;;;;;;14.00;4.07;;;;;;;;;;5095672;28;20027;-71
2024/03/31 08:48:41;;;;;;;18.25;4.85;;;;;;;;;;5115486;28;20031;-73
2024/03/31 08:51:07;;;;;;;15.30;3.90;;;;;;;;;;5115243;28;20489;-71
2024/03/31 08:53:33;;;;;;;15.43;4.38;;;;;;;;;;5096128;28;20122;-71
2024/03/31 08:56:00;;;;;;;16.98;4.13;;;;;;;;;;5114091;28;20043;-72
2024/03/31 08:58:26;;;;;;;17.52;5.13;;;;;;;;;;5115163;28;20470;-72
2024/03/31 09:00:52;;;;;;;12.70;4.07;;;;;;;;;;5115674;28;20077;-72
2024/03/31 09:03:18;;;;;;;19.75;5.22;;;;;;;;;;5113906;28;20023;-72
2024/03/31 09:05:44;;;;;;;22.25;4.35;;;;;;;;;;5079035;28;20115;-73
2024/03/31 09:08:11;;;;;;;18.08;3.72;;;;;;;;;;5112372;28;20050;-72
2024/03/31 09:10:37;;;;;;;17.02;3.72;;;;;;;;;;5094824;28;20015;-72
2024/03/31 09:13:07;;;;;;;15.73;3.53;;;;;;;;;;5113048;28;20030;-72
2024/03/31 09:15:36;;;;;;;15.15;4.18;;;;;;;;;;5095306;28;20028;-72
2024/03/31 09:18:03;;;;;;;17.27;4.35;;;;;;;;;;5113590;28;20053;-72
2024/03/31 09:20:30;;;;;;;18.27;3.92;;;;;;;;;;5113545;28;20035;-73
2024/03/31 09:22:56;;;;;;;15.43;4.03;;;;;;;;;;5113039;28;20028;-72
2024/03/31 09:25:22;;;;;;;14.98;4.22;;;;;;;;;;5113382;28;20031;-72
2024/03/31 09:27:48;;;;;;;13.50;3.20;;;;;;;;;;5094488;28;20015;-72
2024/03/31 09:30:15;;;;;;;16.52;3.38;;;;;;;;;;5113256;28;20042;-72
2024/03/31 09:32:41;;;;;;;14.63;3.60;;;;;;;;;;5112975;28;20076;-73
2024/03/31 09:35:07;;;;;;;19.50;3.97;;;;;;;;;;5092154;28;20015;-70
2024/03/31 09:37:36;;;;;;;14.32;3.53;;;;;;;;;;5095828;28;20030;-75
2024/03/31 09:40:06;;;;;;;15.65;4.00;;;;;;;;;;5114306;28;20020;-72
2024/03/31 09:42:32;;;;;;;15.27;4.00;;;;;;;;;;5113473;28;20611;-73
2024/03/31 09:45:00;;;;;;;22.58;4.30;;;;;;;;;;5095414;28;20023;-73
2024/03/31 09:47:33;;;;;;;13.63;4.05;;;;;;;;;;5114829;28;20020;-73
2024/03/31 09:50:08;;;;;;;21.02;4.13;;;;;;;;;;5095830;28;20020;-72
2024/03/31 09:52:34;;;;;;;25.80;3.47;;;;;;;;;;5113474;28;20012;-71
2024/03/31 09:55:08;;;;;;;16.15;3.78;;;;;;;;;;5112819;28;20039;-73
2024/03/31 09:57:37;;;;;;;16.80;3.83;;;;;;;;;;5111977;28;20020;-70
2024/03/31 10:00:04;;;;;;;11.32;3.35;;;;;;;;;;5111592;28;20104;-70
2024/03/31 10:02:31;;;;;;;22.75;4.38;;;;;;;;;;5111713;28;20066;-70
2024/03/31 10:05:01;;;;;;;19.17;3.30;;;;;;;;;;5082436;28;20024;-70
2024/03/31 10:07:27;;;;;;;14.40;2.78;;;;;;;;;;5091438;28;20012;-71
2024/03/31 10:09:54;;;;;;;16.00;3.25;;;;;;;;;;5092455;28;20027;-72
2024/03/31 10:12:21;;;;;;;17.42;3.70;;;;;;;;;;5091663;28;20024;-74
2024/03/31 10:14:48;;;;;;;12.95;3.00;;;;;;;;;;5092685;28;20024;-71
2024/03/31 10:17:15;;;;;;;16.90;3.53;;;;;;;;;;5091937;28;20035;-72
2024/03/31 10:19:41;;;;;;;16.90;3.10;;;;;;;;;;5091960;28;20415;-73
2024/03/31 10:22:08;;;;;;;18.17;3.45;;;;;;;;;;5073797;28;20420;-70
2024/03/31 10:24:36;;;;;;;14.73;2.90;;;;;;;;;;5072742;28;20342;-71
2024/03/31 10:27:03;;;;;;;19.42;3.35;;;;;;;;;;5092742;28;20532;-72
2024/03/31 10:29:29;;;;;;;16.38;2.50;;;;;;;;;;5092816;28;20381;-72
2024/03/31 10:31:55;;;;;;;16.60;3.92;;;;;;;;;;5073673;28;20085;-71
2024/03/31 10:34:21;;;;;;;21.88;3.15;;;;;;;;;;5080716;28;20406;-71
2024/03/31 10:36:47;;;;;;;12.18;2.40;;;;;;;;;;5105376;28;20103;-72
2024/03/31 10:39:14;;;;;;;15.10;2.50;;;;;;;;;;5112310;28;20035;-73
2024/03/31 10:41:40;;;;;;;15.40;3.45;;;;;;;;;;5102020;28;20392;-73
2024/03/31 10:44:06;;;;;;;21.55;3.60;;;;;;;;;;5102682;28;20419;-72
2024/03/31 10:46:34;;;;;;;16.30;3.65;;;;;;;;;;5111965;28;20035;-71
2024/03/31 10:49:01;;;;;;;19.75;3.85;;;;;;;;;;5111427;28;20351;-71
2024/03/31 10:51:27;;;;;;;14.05;2.67;;;;;;;;;;5092655;28;20376;-71
2024/03/31 10:53:54;;;;;;;19.88;3.15;;;;;;;;;;5111454;28;20031;-71
2024/03/31 10:56:26;;;;;;;13.90;2.40;;;;;;;;;;5111559;28;20076;-72
2024/03/31 10:58:52;;;;;;;17.90;3.30;;;;;;;;;;5111338;28;20023;-72
2024/03/31 11:01:18;;;;;;;13.65;2.78;;;;;;;;;;5111605;28;20050;-71
2024/03/31 11:03:47;;;;;;;16.70;2.78;;;;;;;;;;5112089;28;20027;-70
2024/03/31 11:06:17;;;;;;;16.25;3.58;;;;;;;;;;5112006;28;20023;-71
2024/03/31 11:08:43;;;;;;;18.67;2.88;;;;;;;;;;5112058;28;20055;-74
2024/03/31 11:11:10;;;;;;;20.00;2.72;;;;;;;;;;5111899;28;20121;-71
2024/03/31 11:13:38;;;;;;;17.38;2.67;;;;;;;;;;5111528;28;20023;-74
2024/03/31 11:16:08;;;;;;;20.08;4.07;;;;;;;;;;5110947;28;20020;-73
2024/03/31 11:18:35;;;;;;;18.80;5.10;;;;;;;;;;5111141;28;20035;-71
2024/03/31 11:21:08;;;;;;;17.83;3.63;;;;;;;;;;5110662;28;20030;-71
2024/03/31 11:23:37;;;;;;;18.05;3.00;;;;;;;;;;5092802;28;20049;-72
2024/03/31 11:26:04;;;;;;;15.55;3.63;;;;;;;;;;5111778;28;20028;-71
2024/03/31 11:28:30;;;;;;;12.32;2.65;;;;;;;;;;5093818;28;20024;-72
2024/03/31 11:30:58;;;;;;;21.17;2.88;;;;;;;;;;5093253;28;20020;-72
2024/03/31 11:33:25;;;;;;;15.40;2.80;;;;;;;;;;5096442;28;20095;-72
2024/03/31 11:35:51;;;;;;;16.52;3.03;;;;;;;;;;5097476;28;20023;-70
2024/03/31 11:38:18;;;;;;;25.05;4.40;;;;;;;;;;5096886;28;20483;-71
2024/03/31 11:40:44;;;;;;;21.52;4.50;;;;;;;;;;5097096;28;20024;-71
2024/03/31 11:43:10;;;;;;;23.33;4.70;;;;;;;;;;5114892;28;20051;-72
2024/03/31 11:45:36;;;;;;;16.80;3.33;;;;;;;;;;5114624;28;20114;-70
2024/03/31 11:48:04;;;;;;;24.08;3.85;;;;;;;;;;5096091;28;20129;-69
2024/03/31 11:50:31;;;;;;;18.30;4.13;;;;;;;;;;5115781;28;20115;-72
2024/03/31 11:52:57;;;;;;;18.02;2.85;;;;;;;;;;5096366;28;20423;-72
2024/03/31 11:55:23;;;;;;;24.10;4.38;;;;;;;;;;5116315;28;20015;-73
2024/03/31 11:57:50;;;;;;;20.52;4.07;;;;;;;;;;5098207;28;20081;-72
2024/03/31 12:00:16;;;;;;;22.33;3.10;;;;;;;;;;5115699;28;20030;-72
2024/03/31 12:02:43;;;;;;;19.25;4.15;;;;;;;;;;5115647;28;20023;-72
2024/03/31 12:05:18;;;;;;;24.50;3.42;;;;;;;;;;5114723;28;20031;-72
2024/03/31 12:07:45;;;;;;;36.97;5.00;;;;;;;;;;5114923;28;20022;-71
2024/03/31 12:10:11;;;;;;;19.70;3.03;;;;;;;;;;5115004;28;20390;-72
2024/03/31 12:12:38;;;;;;;21.17;3.20;;;;;;;;;;5115112;28;20043;-73
2024/03/31 12:15:04;;;;;;;21.05;4.38;;;;;;;;;;5096440;28;20050;-72
2024/03/31 12:17:30;;;;;;;27.88;4.30;;;;;;;;;;5095769;28;20024;-70
2024/03/31 12:19:56;;;;;;;23.65;4.30;;;;;;;;;;5114565;28;20478;-72
2024/03/31 12:22:23;;;;;;;22.85;3.80;;;;;;;;;;5114415;28;20024;-71
2024/03/31 12:24:49;;;;;;;19.77;3.75;;;;;;;;;;5115222;28;20418;-72
2024/03/31 12:27:15;;;;;;;19.13;4.35;;;;;;;;;;5096007;28;20027;-72
2024/03/31 12:29:43;;;;;;;15.70;3.38;;;;;;;;;;5113350;28;20028;-72
2024/03/31 12:32:09;;;;;;;16.80;3.42;;;;;;;;;;5095425;28;20485;-72
2024/03/31 12:34:38;;;;;;;28.55;4.20;;;;;;;;;;5081699;28;20024;-73
2024/03/31 12:37:05;;;;;;;15.57;3.38;;;;;;;;;;5111800;28;20023;-72
2024/03/31 12:39:31;;;;;;;16.73;3.35;;;;;;;;;;5095602;28;20088;-73
2024/03/31 12:41:57;;;;;;;17.50;3.33;;;;;;;;;;5113086;28;20012;-71
2024/03/31 12:44:23;;;;;;;19.17;3.72;;;;;;;;;;5114395;28;20073;-71
2024/03/31 12:46:49;;;;;;;24.45;3.92;;;;;;;;;;5095935;28;20027;-71
2024/03/31 12:49:16;;;;;;;13.85;4.15;;;;;;;;;;5113257;28;20046;-71
2024/03/31 12:51:42;;;;;;;18.35;2.80;;;;;;;;;;5094353;28;20046;-72
2024/03/31 12:54:08;;;;;;;23.67;3.67;;;;;;;;;;5112761;28;20470;-72
2024/03/31 12:56:34;;;;;;;29.27;4.45;;;;;;;;;;5113177;28;20046;-72
2024/03/31 12:59:01;;;;;;;21.92;3.97;;;;;;;;;;5114263;28;20468;-73
2024/03/31 13:01:28;;;;;;;24.70;4.43;;;;;;;;;;5095667;28;20028;-71
2024/03/31 13:03:54;;;;;;;26.25;5.25;;;;;;;;;;5094630;28;20314;-71
2024/03/31 13:06:20;;;;;;;23.40;4.47;;;;;;;;;;5113803;28;20020;-72
2024/03/31 13:08:46;;;;;;;22.10;3.40;;;;;;;;;;5095670;28;20103;-71
2024/03/31 13:11:14;;;;;;;21.73;3.40;;;;;;;;;;5101542;28;20062;-71
2024/03/31 13:13:41;;;;;;;35.90;4.68;;;;;;;;;;5092916;28;20028;-70
2024/03/31 13:16:07;;;;;;;21.45;4.20;;;;;;;;;;5092437;28;20085;-71
2024/03/31 13:18:33;;;;;;;21.77;4.32;;;;;;;;;;5075013;28;20115;-71
2024/03/31 13:20:59;;;;;;;18.35;4.03;;;;;;;;;;5075341;28;20066;-70
2024/03/31 13:23:26;;;;;;;17.45;4.28;;;;;;;;;;5092647;28;20077;-71
2024/03/31 13:25:53;;;;;;;27.38;4.00;;;;;;;;;;5093152;28;20431;-71
2024/03/31 13:28:19;;;;;;;18.60;3.92;;;;;;;;;;5074098;28;20143;-74
2024/03/31 13:30:46;;;;;;;26.63;4.03;;;;;;;;;;5092843;28;20515;-71
2024/03/31 13:33:13;;;;;;;30.42;4.63;;;;;;;;;;5092216;28;20114;-71
2024/03/31 13:35:39;;;;;;;18.33;3.67;;;;;;;;;;5092587;28;20111;-72
2024/03/31 13:38:06;;;;;;;21.50;4.50;;;;;;;;;;5092553;28;20024;-72
2024/03/31 13:40:33;;;;;;;24.08;4.25;;;;;;;;;;5074492;28;20028;-72
2024/03/31 13:42:59;;;;;;;21.15;4.75;;;;;;;;;;5092340;28;20100;-72
2024/03/31 13:45:25;;;;;;;21.20;3.83;;;;;;;;;;5074237;28;20429;-71
2024/03/31 13:47:52;;;;;;;26.45;3.53;;;;;;;;;;5092443;28;20528;-72
2024/03/31 13:50:18;;;;;;;24.27;4.20;;;;;;;;;;5073967;28;20099;-70
2024/03/31 13:52:44;;;;;;;22.65;4.40;;;;;;;;;;5091667;28;20027;-70
2024/03/31 13:55:10;;;;;;;20.58;4.47;;;;;;;;;;5091645;28;20393;-73
2024/03/31 13:57:36;;;;;;;19.40;4.28;;;;;;;;;;5073922;28;20032;-73
2024/03/31 14:00:04;;;;;;;24.42;4.07;;;;;;;;;;5092117;28;20035;-72
2024/03/31 14:02:30;;;;;;;22.70;4.47;;;;;;;;;;5091827;28;20028;-71
2024/03/31 14:04:56;;;;;;;21.63;3.78;;;;;;;;;;5092695;28;20119;-72
2024/03/31 14:07:22;;;;;;;25.67;4.70;;;;;;;;;;5091884;28;20363;-70
2024/03/31 14:09:48;;;;;;;22.05;5.05;;;;;;;;;;5091535;28;20020;-70
2024/03/31 14:12:15;;;;;;;26.35;4.40;;;;;;;;;;5091561;28;20031;-72
2024/03/31 14:14:41;;;;;;;24.00;4.95;;;;;;;;;;5073079;28;20020;-71
2024/03/31 14:17:07;;;;;;;24.88;4.60;;;;;;;;;;5098070;28;20034;-71
2024/03/31 14:19:34;;;;;;;24.63;4.70;;;;;;;;;;5111988;28;20016;-72
2024/03/31 14:22:00;;;;;;;41.42;5.10;;;;;;;;;;5093623;28;20454;-74
2024/03/31 14:24:26;;;;;;;34.08;5.68;;;;;;;;;;5111283;28;20028;-71
2024/03/31 14:26:52;;;;;;;25.98;4.63;;;;;;;;;;5093100;28;20042;-74